Time;durP1;ratioP1;P1;durP2;ratioP2;P2;SDS_P1;SDS_P2;PMS_P1;PMS_P2;Temp;Humidity;BMP_temperature;BMP_pressure;BME280_temperature;BME280_humidity;BME280_pressure;Samples;Min_cycle;Max_cycle;Signal;HPM_P1;HPM_P2
2021/09/01 00:00:28;;;;;;;10.27;8.80;;;16.10;82.50;;;;;;4989464;28;20190;-92
2021/09/01 00:02:56;;;;;;;9.57;8.67;;;16.20;82.00;;;;;;4995054;28;20179;-92
2021/09/01 00:05:22;;;;;;;10.30;8.90;;;16.30;81.80;;;;;;4986572;28;20209;-93
2021/09/01 00:07:48;;;;;;;12.30;9.70;;;16.30;81.30;;;;;;4987543;28;20674;-93
2021/09/01 00:10:14;;;;;;;10.03;9.13;;;16.20;80.50;;;;;;5015307;28;20171;-92
2021/09/01 00:12:42;;;;;;;10.37;9.20;;;16.20;80.90;;;;;;5014210;28;20198;-92
2021/09/01 00:15:09;;;;;;;10.20;8.83;;;16.10;80.40;;;;;;5007197;28;20251;-93
2021/09/01 00:17:37;;;;;;;9.70;8.63;;;16.10;81.40;;;;;;5009934;28;20252;-93
2021/09/01 00:20:06;;;;;;;11.87;10.77;;;16.10;81.20;;;;;;5020173;28;20166;-93
2021/09/01 00:22:33;;;;;;;10.43;9.50;;;16.00;79.70;;;;;;5018045;28;20208;-92
2021/09/01 00:24:58;;;;;;;11.27;10.17;;;15.90;81.50;;;;;;5005793;28;20294;-91
2021/09/01 00:27:25;;;;;;;11.57;9.83;;;16.00;81.50;;;;;;5001712;28;20222;-91
2021/09/01 00:29:51;;;;;;;11.57;9.97;;;15.90;82.10;;;;;;5005349;28;20190;-90
2021/09/01 00:32:17;;;;;;;10.87;9.63;;;16.10;81.60;;;;;;5004707;28;20177;-90
2021/09/01 00:34:42;;;;;;;10.43;9.43;;;16.00;81.00;;;;;;5020469;28;20224;-90
2021/09/01 00:37:08;;;;;;;10.00;9.00;;;16.10;81.00;;;;;;5004393;28;20679;-90
2021/09/01 00:39:35;;;;;;;10.60;8.83;;;16.00;81.80;;;;;;5020769;28;20182;-92
2021/09/01 00:42:05;;;;;;;9.13;8.33;;;16.00;80.60;;;;;;5005284;28;20183;-89
2021/09/01 00:44:31;;;;;;;10.33;9.20;;;16.00;81.10;;;;;;4999912;28;20214;-90
2021/09/01 00:46:58;;;;;;;10.80;9.63;;;16.00;80.90;;;;;;5004986;28;20183;-89
2021/09/01 00:49:27;;;;;;;9.63;8.67;;;16.00;81.30;;;;;;5004437;28;20213;-90
2021/09/01 00:51:54;;;;;;;11.03;10.03;;;15.90;81.00;;;;;;5016159;28;20194;-89
2021/09/01 00:54:25;;;;;;;9.80;8.90;;;15.90;80.30;;;;;;4986845;28;20690;-90
2021/09/01 00:56:57;;;;;;;11.97;9.93;;;15.80;81.40;;;;;;5015491;28;20621;-91
2021/09/01 00:59:28;;;;;;;10.07;9.07;;;15.80;81.70;;;;;;5007631;28;20287;-90
2021/09/01 01:01:55;;;;;;;10.10;9.13;;;15.80;81.70;;;;;;4992746;28;20215;-91
2021/09/01 01:04:25;;;;;;;9.57;8.77;;;15.90;81.20;;;;;;5005177;28;20282;-89
2021/09/01 01:06:51;;;;;;;10.40;9.50;;;15.90;81.10;;;;;;5015895;28;20187;-91
2021/09/01 01:09:17;;;;;;;11.43;10.20;;;15.90;81.00;;;;;;5028320;28;20219;-90
2021/09/01 01:12:05;;;;;;;10.37;9.30;;;16.00;81.10;;;;;;5016593;28;20191;-90
2021/09/01 01:14:36;;;;;;;12.47;11.07;;;15.90;81.00;;;;;;4992512;28;20213;-91
2021/09/01 01:17:04;;;;;;;10.63;9.60;;;15.80;79.80;;;;;;4987438;28;20214;-91
2021/09/01 01:19:29;;;;;;;10.77;9.80;;;15.70;80.20;;;;;;4995179;28;20674;-91
2021/09/01 01:21:57;;;;;;;11.37;10.27;;;15.60;81.80;;;;;;4998925;28;20201;-91
2021/09/01 01:24:23;;;;;;;10.93;9.80;;;15.60;80.90;;;;;;5007747;28;20239;-91
2021/09/01 01:26:48;;;;;;;10.50;8.83;;;15.60;81.80;;;;;;5005710;28;20203;-91
2021/09/01 01:29:14;;;;;;;9.73;8.73;;;15.60;81.70;;;;;;4995457;28;20569;-90
2021/09/01 01:31:40;;;;;;;10.90;9.80;;;15.60;81.70;;;;;;4986298;28;20220;-92
2021/09/01 01:34:15;;;;;;;11.83;9.93;;;15.60;81.20;;;;;;4988768;28;20242;-92
2021/09/01 01:36:41;;;;;;;11.63;10.47;;;15.70;81.40;;;;;;4992043;28;20261;-92
2021/09/01 01:39:06;;;;;;;10.87;9.70;;;15.60;81.30;;;;;;4981562;28;20208;-92
2021/09/01 01:41:32;;;;;;;11.13;10.03;;;15.60;81.60;;;;;;5004782;28;20183;-91
2021/09/01 01:43:58;;;;;;;11.30;10.20;;;15.70;81.40;;;;;;4990053;28;20233;-92
2021/09/01 01:46:24;;;;;;;12.37;11.07;;;15.70;81.50;;;;;;4997844;28;20178;-92
2021/09/01 01:48:50;;;;;;;11.73;10.63;;;15.70;80.90;;;;;;4999876;28;20197;-92
2021/09/01 01:51:15;;;;;;;13.80;12.03;;;15.60;81.40;;;;;;4987529;28;20247;-93
2021/09/01 01:53:41;;;;;;;13.53;12.10;;;15.60;81.50;;;;;;4995100;28;20217;-91
2021/09/01 01:56:07;;;;;;;13.90;12.50;;;15.60;82.40;;;;;;4984354;28;20219;-90
2021/09/01 01:58:33;;;;;;;11.73;10.47;;;15.60;80.60;;;;;;5003605;28;20178;-93
2021/09/01 02:00:59;;;;;;;11.83;10.63;;;15.50;81.50;;;;;;4993112;28;20200;-92
2021/09/01 02:03:24;;;;;;;13.13;11.93;;;15.60;81.60;;;;;;4988849;28;20253;-92
2021/09/01 02:05:50;;;;;;;13.07;11.30;;;15.60;81.40;;;;;;5005543;28;20279;-92
2021/09/01 02:08:16;;;;;;;13.93;12.50;;;15.60;81.80;;;;;;4972950;28;20676;-93
2021/09/01 02:10:41;;;;;;;11.40;10.30;;;15.50;81.40;;;;;;4998008;28;20206;-92
2021/09/01 02:13:07;;;;;;;14.13;12.73;;;15.40;81.60;;;;;;5002143;28;20191;-91
2021/09/01 02:15:33;;;;;;;14.60;13.10;;;15.30;81.50;;;;;;5003029;28;20211;-92
2021/09/01 02:17:59;;;;;;;14.97;13.37;;;15.10;83.50;;;;;;5014063;28;20202;-92
2021/09/01 02:20:25;;;;;;;14.60;12.13;;;15.10;84.10;;;;;;4982549;28;20193;-89
2021/09/01 02:22:51;;;;;;;14.97;12.63;;;15.10;84.40;;;;;;4993009;28;20198;-90
2021/09/01 02:25:16;;;;;;;14.20;12.70;;;15.10;83.70;;;;;;5005072;28;20683;-90
2021/09/01 02:27:42;;;;;;;14.33;11.77;;;14.90;82.60;;;;;;5003394;28;20341;-89
2021/09/01 02:30:09;;;;;;;13.73;12.30;;;14.90;83.60;;;;;;4990207;28;20682;-89
2021/09/01 02:32:35;;;;;;;12.03;10.93;;;14.90;84.30;;;;;;4987453;28;20183;-91
2021/09/01 02:35:02;;;;;;;13.00;11.67;;;15.00;83.40;;;;;;5003355;28;20314;-90
2021/09/01 02:37:28;;;;;;;12.10;10.90;;;15.00;82.30;;;;;;5000230;28;20195;-92
2021/09/01 02:39:53;;;;;;;11.90;10.70;;;15.00;83.10;;;;;;5002444;28;20198;-92
2021/09/01 02:42:19;;;;;;;14.23;11.90;;;15.10;83.30;;;;;;5002882;28;20205;-92
2021/09/01 02:44:45;;;;;;;13.80;12.33;;;15.20;83.10;;;;;;4987819;28;20218;-92
2021/09/01 02:47:11;;;;;;;13.77;12.23;;;15.20;83.40;;;;;;5005135;28;20189;-91
2021/09/01 02:49:36;;;;;;;13.53;11.97;;;15.20;82.20;;;;;;5007062;28;20186;-92
2021/09/01 02:52:03;;;;;;;12.93;11.63;;;15.10;83.00;;;;;;5004614;28;20277;-92
2021/09/01 02:54:29;;;;;;;13.80;12.30;;;15.10;83.40;;;;;;5005299;28;20693;-92
2021/09/01 02:56:54;;;;;;;14.13;12.17;;;15.20;82.90;;;;;;5005249;28;20211;-91
2021/09/01 02:59:20;;;;;;;14.17;12.50;;;15.20;81.60;;;;;;5000999;28;20198;-90
2021/09/01 03:01:46;;;;;;;14.93;12.90;;;15.10;82.00;;;;;;5014236;28;20203;-91
2021/09/01 03:04:11;;;;;;;16.13;14.37;;;15.00;84.00;;;;;;5013479;28;20233;-91
2021/09/01 03:06:37;;;;;;;16.87;14.17;;;15.00;84.70;;;;;;4992619;28;20248;-91
2021/09/01 03:09:03;;;;;;;17.10;15.30;;;14.90;83.80;;;;;;5015515;28;20232;-90
2021/09/01 03:11:29;;;;;;;17.50;15.00;;;14.80;87.20;;;;;;5017363;28;20181;-90
2021/09/01 03:13:55;;;;;;;17.77;16.07;;;14.90;87.50;;;;;;5016964;28;20195;-91
2021/09/01 03:16:21;;;;;;;16.27;14.57;;;14.90;86.90;;;;;;5002092;28;20225;-89
2021/09/01 03:18:46;;;;;;;18.03;16.13;;;15.00;86.80;;;;;;4997473;28;20263;-90
2021/09/01 03:21:12;;;;;;;17.57;14.80;;;15.10;86.50;;;;;;4998052;28;20249;-93
2021/09/01 03:23:38;;;;;;;15.27;12.90;;;15.00;84.90;;;;;;4975219;28;20215;-92
2021/09/01 03:26:04;;;;;;;15.70;14.10;;;14.90;85.70;;;;;;4992386;28;20194;-93
2021/09/01 03:28:30;;;;;;;17.17;14.03;;;15.00;86.50;;;;;;5003974;28;20253;-90
2021/09/01 03:30:56;;;;;;;14.60;13.10;;;15.00;86.20;;;;;;4998955;28;20193;-90
2021/09/01 03:33:22;;;;;;;15.50;13.97;;;15.00;86.50;;;;;;4980627;28;20200;-91
2021/09/01 03:35:47;;;;;;;17.67;14.47;;;15.10;86.60;;;;;;5000081;28;20219;-89
2021/09/01 03:38:15;;;;;;;15.93;14.17;;;15.10;86.40;;;;;;4969319;28;20606;-90
2021/09/01 03:40:41;;;;;;;14.83;12.87;;;15.20;86.40;;;;;;5003851;28;20257;-90
2021/09/01 03:43:07;;;;;;;15.60;13.20;;;15.10;86.40;;;;;;4978924;28;20194;-90
2021/09/01 03:45:32;;;;;;;14.93;13.50;;;15.10;86.00;;;;;;5002951;28;20247;-90
2021/09/01 03:47:58;;;;;;;15.70;13.40;;;15.10;85.10;;;;;;5013978;28;20233;-90
2021/09/01 03:50:24;;;;;;;14.50;12.30;;;15.10;85.20;;;;;;5018449;28;20191;-90
2021/09/01 03:52:50;;;;;;;18.67;16.70;;;15.10;85.40;;;;;;5002309;28;20191;-91
2021/09/01 03:55:16;;;;;;;14.13;12.73;;;15.10;85.20;;;;;;4986631;28;20227;-92
2021/09/01 03:57:42;;;;;;;14.53;13.07;;;15.20;84.80;;;;;;5003765;28;20279;-91
2021/09/01 04:00:09;;;;;;;14.70;13.17;;;15.20;85.40;;;;;;5003294;28;20412;-92
2021/09/01 04:02:35;;;;;;;14.57;13.13;;;15.20;85.30;;;;;;5002883;28;20186;-93
2021/09/01 04:05:01;;;;;;;13.97;12.57;;;15.10;85.20;;;;;;5003638;28;20742;-92
2021/09/01 04:07:27;;;;;;;14.13;12.67;;;15.10;85.00;;;;;;5001099;28;20194;-92
2021/09/01 04:09:52;;;;;;;14.30;12.83;;;15.10;85.60;;;;;;4984596;28;20190;-92
2021/09/01 04:12:18;;;;;;;16.40;13.30;;;15.00;85.20;;;;;;5003232;28;20190;-91
2021/09/01 04:14:45;;;;;;;14.23;12.93;;;15.00;85.40;;;;;;5004760;28;20220;-92
2021/09/01 04:17:10;;;;;;;13.87;12.40;;;15.10;86.10;;;;;;5006348;28;20225;-92
2021/09/01 04:19:36;;;;;;;12.90;11.60;;;15.10;85.60;;;;;;4989957;28;20214;-92
2021/09/01 04:22:03;;;;;;;17.13;12.73;;;14.90;83.40;;;;;;5002885;28;20205;-92
2021/09/01 04:24:30;;;;;;;14.27;12.87;;;14.90;85.30;;;;;;4999654;28;20266;-92
2021/09/01 04:26:56;;;;;;;13.67;12.27;;;14.90;85.70;;;;;;4975470;28;20199;-92
2021/09/01 04:29:21;;;;;;;13.30;11.90;;;14.90;85.30;;;;;;4992477;28;20245;-92
2021/09/01 04:31:47;;;;;;;15.00;13.50;;;14.90;84.90;;;;;;4994442;28;20191;-92
2021/09/01 04:34:13;;;;;;;17.47;13.73;;;14.80;84.70;;;;;;4995116;28;20225;-92
2021/09/01 04:36:39;;;;;;;14.77;11.70;;;14.60;84.80;;;;;;4985578;28;20221;-90
2021/09/01 04:39:05;;;;;;;15.07;13.17;;;14.60;86.30;;;;;;4997905;28;20199;-90
2021/09/01 04:41:31;;;;;;;13.30;11.63;;;14.60;86.50;;;;;;4987406;28;20201;-90
2021/09/01 04:43:57;;;;;;;13.90;12.40;;;14.70;86.40;;;;;;4989819;28;20212;-90
2021/09/01 04:46:22;;;;;;;13.87;12.37;;;14.80;86.00;;;;;;4987982;28;20194;-90
2021/09/01 04:48:48;;;;;;;14.10;12.70;;;14.80;85.60;;;;;;5017362;28;20191;-90
2021/09/01 04:51:14;;;;;;;17.57;13.43;;;14.80;85.40;;;;;;5005975;28;20190;-90
2021/09/01 04:53:39;;;;;;;14.83;13.33;;;14.80;85.10;;;;;;4992481;28;20230;-90
2021/09/01 04:56:05;;;;;;;12.53;11.33;;;14.80;85.40;;;;;;5003825;28;20233;-90
2021/09/01 04:58:31;;;;;;;16.00;14.27;;;14.70;84.70;;;;;;5003772;28;20187;-86
2021/09/01 05:00:57;;;;;;;16.27;14.53;;;14.80;85.00;;;;;;4988180;28;20202;-89
2021/09/01 05:03:22;;;;;;;17.03;15.23;;;14.70;85.80;;;;;;4994852;28;20198;-90
2021/09/01 05:05:48;;;;;;;16.03;13.90;;;14.80;85.50;;;;;;4998378;28;20210;-90
2021/09/01 05:08:15;;;;;;;18.43;16.33;;;14.80;85.90;;;;;;4999837;28;20233;-90
2021/09/01 05:10:41;;;;;;;15.40;13.80;;;14.80;85.70;;;;;;5001913;28;20193;-90
2021/09/01 05:13:08;;;;;;;16.13;13.83;;;14.80;84.80;;;;;;5009597;28;20223;-90
2021/09/01 05:15:33;;;;;;;16.77;13.70;;;14.80;84.60;;;;;;5021029;28;20218;-89
2021/09/01 05:17:59;;;;;;;17.80;15.73;;;14.80;85.00;;;;;;5002476;28;20198;-89
2021/09/01 05:20:25;;;;;;;18.37;13.63;;;14.80;85.60;;;;;;5002060;28;20191;-89
2021/09/01 05:23:01;;;;;;;17.70;15.93;;;14.80;85.30;;;;;;4998004;28;20198;-89
2021/09/01 05:25:30;;;;;;;16.23;13.97;;;14.70;85.60;;;;;;4999168;28;20202;-90
2021/09/01 05:27:56;;;;;;;17.73;14.87;;;14.60;86.30;;;;;;5009617;28;20200;-90
2021/09/01 05:30:22;;;;;;;14.40;12.90;;;14.70;86.20;;;;;;5002769;28;20691;-89
2021/09/01 05:32:51;;;;;;;14.83;13.43;;;14.80;85.80;;;;;;4985318;28;20190;-89
2021/09/01 05:35:17;;;;;;;16.40;13.13;;;14.80;85.30;;;;;;4999722;28;20218;-89
2021/09/01 05:37:43;;;;;;;16.80;14.20;;;14.80;84.60;;;;;;5003543;28;20182;-89
2021/09/01 05:40:11;;;;;;;17.10;14.93;;;14.80;85.90;;;;;;5015423;28;20259;-89
2021/09/01 05:42:37;;;;;;;17.77;15.30;;;14.90;86.10;;;;;;5004217;28;20234;-89
2021/09/01 05:45:06;;;;;;;25.43;20.30;;;14.80;86.90;;;;;;5004948;28;20205;-89
2021/09/01 05:47:32;;;;;;;16.93;15.20;;;14.80;88.70;;;;;;5001476;28;20194;-86
2021/09/01 05:49:59;;;;;;;17.23;15.17;;;14.70;87.90;;;;;;5002251;28;20269;-87
2021/09/01 05:52:27;;;;;;;18.70;16.63;;;14.70;88.30;;;;;;4995045;28;20190;-87
2021/09/01 05:54:55;;;;;;;18.27;16.33;;;14.70;88.70;;;;;;4994457;28;20234;-90
2021/09/01 05:57:33;;;;;;;26.30;21.73;;;14.70;88.70;;;;;;4996453;28;20543;-89
2021/09/01 06:00:12;;;;;;;25.67;20.70;;;14.60;91.30;;;;;;4995940;28;20243;-91
2021/09/01 06:03:17;;;;;;;23.73;20.07;;;14.60;91.90;;;;;;5014337;28;20185;-91
2021/09/01 06:05:45;;;;;;;26.47;20.60;;;14.70;91.70;;;;;;5003061;28;20195;-92
2021/09/01 06:08:11;;;;;;;23.90;20.03;;;14.70;92.00;;;;;;5003214;28;20187;-91
2021/09/01 06:10:38;;;;;;;20.17;18.07;;;14.80;92.40;;;;;;4984986;28;20214;-90
2021/09/01 06:13:11;;;;;;;20.43;17.73;;;14.80;92.10;;;;;;4999827;28;20211;-91
2021/09/01 06:15:40;;;;;;;22.87;20.43;;;14.90;92.10;;;;;;5001152;28;20676;-91
2021/09/01 06:18:08;;;;;;;22.07;19.53;;;14.90;92.40;;;;;;5001991;28;20225;-90
2021/09/01 06:20:35;;;;;;;20.50;18.27;;;14.90;92.50;;;;;;5001848;28;20179;-90
2021/09/01 06:23:02;;;;;;;21.73;19.47;;;14.90;92.50;;;;;;4991216;28;20225;-90
2021/09/01 06:25:28;;;;;;;21.67;18.93;;;14.90;92.80;;;;;;4994435;28;20228;-91
2021/09/01 06:27:54;;;;;;;22.73;19.50;;;14.90;93.70;;;;;;4992428;28;20656;-91
2021/09/01 06:30:20;;;;;;;25.47;20.67;;;14.80;93.70;;;;;;4994838;28;20243;-91
2021/09/01 06:32:46;;;;;;;28.93;22.13;;;14.70;94.50;;;;;;4993504;28;20302;-90
2021/09/01 06:35:12;;;;;;;25.87;20.30;;;14.70;94.90;;;;;;4992179;28;20272;-91
2021/09/01 06:37:39;;;;;;;28.23;21.10;;;14.70;95.70;;;;;;4991098;28;20189;-91
2021/09/01 06:40:10;;;;;;;26.53;22.13;;;14.60;96.30;;;;;;5008207;28;20601;-90
2021/09/01 06:42:36;;;;;;;28.40;23.10;;;14.60;96.40;;;;;;4995372;28;20182;-90
2021/09/01 06:45:02;;;;;;;26.27;21.03;;;14.60;96.30;;;;;;5006750;28;20277;-90
2021/09/01 06:47:41;;;;;;;25.13;21.87;;;14.70;96.20;;;;;;5024348;28;20208;-89
2021/09/01 06:50:08;;;;;;;27.70;22.33;;;14.70;95.90;;;;;;4992851;28;20196;-90
2021/09/01 06:52:33;;;;;;;25.30;21.80;;;14.80;95.50;;;;;;5002314;28;20199;-91
2021/09/01 06:54:59;;;;;;;24.93;22.17;;;14.90;95.50;;;;;;4985335;28;20236;-91
2021/09/01 06:57:25;;;;;;;30.33;23.03;;;15.00;94.50;;;;;;4985738;28;20197;-91
2021/09/01 06:59:50;;;;;;;26.90;23.03;;;15.10;93.60;;;;;;4985437;28;20558;-91
2021/09/01 07:02:16;;;;;;;24.30;21.10;;;15.10;93.40;;;;;;4993893;28;20256;-89
2021/09/01 07:04:42;;;;;;;29.70;22.63;;;15.20;93.60;;;;;;4993626;28;20220;-89
2021/09/01 07:07:08;;;;;;;24.23;21.63;;;15.30;93.30;;;;;;4990112;28;20601;-90
2021/09/01 07:09:33;;;;;;;25.97;21.47;;;15.30;92.70;;;;;;4991019;28;20565;-89
2021/09/01 07:11:59;;;;;;;24.47;21.37;;;15.20;92.60;;;;;;4991414;28;20257;-89
2021/09/01 07:14:25;;;;;;;24.67;22.07;;;15.10;93.60;;;;;;4990064;28;20281;-90
2021/09/01 07:16:51;;;;;;;29.90;22.10;;;15.20;93.50;;;;;;4986721;28;20214;-88
2021/09/01 07:19:16;;;;;;;28.03;21.53;;;15.30;93.00;;;;;;4990132;28;20188;-89
2021/09/01 07:21:42;;;;;;;26.43;20.07;;;15.50;92.70;;;;;;4971201;28;20182;-88
2021/09/01 07:24:09;;;;;;;23.13;19.80;;;15.50;92.30;;;;;;4990843;28;20437;-89
2021/09/01 07:26:35;;;;;;;21.07;18.90;;;15.60;92.50;;;;;;4990835;28;20238;-88
2021/09/01 07:29:01;;;;;;;21.53;19.23;;;15.70;91.50;;;;;;4992683;28;20561;-88
2021/09/01 07:31:30;;;;;;;24.37;20.13;;;15.70;91.50;;;;;;4992173;28;20689;-88
2021/09/01 07:33:59;;;;;;;22.33;19.07;;;15.90;91.20;;;;;;4993142;28;20253;-89
2021/09/01 07:36:25;;;;;;;21.30;19.00;;;16.10;89.70;;;;;;4994400;28;20314;-89
2021/09/01 07:38:51;;;;;;;20.07;18.07;;;16.20;89.70;;;;;;4994582;28;20196;-89
2021/09/01 07:41:17;;;;;;;20.07;17.87;;;16.30;88.30;;;;;;4994331;28;20190;-89
2021/09/01 07:43:43;;;;;;;19.57;16.83;;;16.50;87.90;;;;;;4992514;28;20230;-89
2021/09/01 07:46:09;;;;;;;18.23;16.23;;;16.60;87.20;;;;;;5014691;28;20624;-90
2021/09/01 07:48:35;;;;;;;18.07;16.17;;;16.60;86.50;;;;;;4997622;28;20198;-90
2021/09/01 07:51:02;;;;;;;17.23;15.47;;;16.60;86.80;;;;;;5000869;28;20190;-90
2021/09/01 07:53:28;;;;;;;16.50;14.87;;;16.60;86.30;;;;;;4992961;28;20497;-90
2021/09/01 07:55:54;;;;;;;20.43;15.17;;;16.60;86.00;;;;;;4997505;28;20203;-92
2021/09/01 07:58:20;;;;;;;16.53;14.83;;;16.60;86.00;;;;;;4999941;28;20213;-90
2021/09/01 08:00:45;;;;;;;16.20;14.73;;;16.60;86.40;;;;;;4993526;28;20207;-91
2021/09/01 08:03:11;;;;;;;15.27;13.80;;;16.60;85.70;;;;;;4981795;28;20183;-92
2021/09/01 08:05:37;;;;;;;14.17;12.87;;;16.70;85.20;;;;;;4998253;28;20220;-91
2021/09/01 08:08:04;;;;;;;14.90;13.40;;;16.80;85.60;;;;;;4998578;28;20539;-91
2021/09/01 08:10:30;;;;;;;14.53;13.03;;;16.90;84.10;;;;;;4977889;28;20627;-92
2021/09/01 08:12:56;;;;;;;14.43;12.90;;;17.00;84.90;;;;;;4993988;28;20213;-92
2021/09/01 08:15:21;;;;;;;14.10;12.87;;;17.10;84.90;;;;;;4995978;28;20230;-92
2021/09/01 08:17:48;;;;;;;18.73;13.83;;;17.30;84.20;;;;;;4992852;28;20282;-92
2021/09/01 08:20:14;;;;;;;14.50;13.10;;;17.40;83.60;;;;;;4995819;28;20207;-92
2021/09/01 08:22:41;;;;;;;14.53;13.17;;;17.60;83.10;;;;;;4984508;28;20206;-92
2021/09/01 08:25:08;;;;;;;14.03;12.30;;;17.70;82.80;;;;;;4999495;28;20234;-92
2021/09/01 08:27:33;;;;;;;13.07;11.90;;;17.80;81.80;;;;;;4981035;28;20188;-92
2021/09/01 08:29:59;;;;;;;13.57;12.23;;;17.90;81.00;;;;;;5010445;28;20190;-92
2021/09/01 08:32:25;;;;;;;14.40;13.00;;;17.90;81.80;;;;;;4998001;28;20212;-92
2021/09/01 08:34:51;;;;;;;12.90;11.50;;;17.90;81.20;;;;;;4995298;28;20234;-92
2021/09/01 08:37:17;;;;;;;11.57;10.33;;;18.00;81.00;;;;;;4996082;28;20219;-92
2021/09/01 08:39:43;;;;;;;11.97;10.47;;;18.10;80.20;;;;;;4999798;28;20209;-92
2021/09/01 08:42:10;;;;;;;12.10;11.00;;;18.00;79.10;;;;;;4995291;28;20574;-91
2021/09/01 08:44:35;;;;;;;11.20;10.13;;;18.10;80.40;;;;;;5002419;28;20316;-92
2021/09/01 08:47:02;;;;;;;12.10;11.00;;;18.30;80.80;;;;;;4994730;28;20665;-92
2021/09/01 08:49:30;;;;;;;12.90;11.40;;;18.50;80.40;;;;;;4991728;28;20199;-89
2021/09/01 08:51:56;;;;;;;12.88;11.05;;;18.60;78.50;;;;;;5001677;28;20195;-89
2021/09/01 08:54:23;;;;;;;13.50;12.30;;;18.80;78.10;;;;;;5009841;28;20217;-89
2021/09/01 08:56:49;;;;;;;12.23;11.13;;;18.90;77.00;;;;;;5005170;28;20589;-89
2021/09/01 08:59:15;;;;;;;12.98;11.88;;;18.90;77.60;;;;;;4993709;28;20186;-90
2021/09/01 09:01:42;;;;;;;12.73;11.43;;;19.00;76.70;;;;;;4991666;28;20195;-90
2021/09/01 09:04:19;;;;;;;11.93;10.88;;;19.00;76.50;;;;;;4991964;28;20529;-90
2021/09/01 09:06:48;;;;;;;12.77;11.55;;;19.20;77.00;;;;;;4993620;28;20196;-93
2021/09/01 09:09:16;;;;;;;13.07;11.77;;;19.30;76.70;;;;;;5002936;28;20202;-89
2021/09/01 09:11:42;;;;;;;12.32;11.07;;;19.30;75.80;;;;;;4994869;28;20244;-91
2021/09/01 09:14:26;;;;;;;13.20;11.15;;;19.50;75.30;;;;;;4991201;28;20218;-90
2021/09/01 09:17:12;;;;;;;12.25;11.13;;;19.60;75.30;;;;;;4993206;28;20408;-89
2021/09/01 09:19:51;;;;;;;10.95;9.85;;;19.70;76.00;;;;;;4995592;28;20198;-88
2021/09/01 09:22:30;;;;;;;12.02;10.82;;;19.80;74.70;;;;;;4996073;28;20681;-89
2021/09/01 09:25:11;;;;;;;12.70;11.48;;;19.80;74.00;;;;;;4992694;28;20229;-90
2021/09/01 09:27:57;;;;;;;13.07;11.85;;;19.90;74.00;;;;;;4999893;28;20205;-89
2021/09/01 09:30:28;;;;;;;17.05;11.43;;;20.10;73.70;;;;;;5021539;28;20201;-89
2021/09/01 09:33:04;;;;;;;11.95;10.82;;;20.20;73.90;;;;;;4993428;28;20189;-89
2021/09/01 09:35:48;;;;;;;13.45;10.65;;;20.40;73.70;;;;;;4996184;28;20311;-89
2021/09/01 09:38:17;;;;;;;11.05;9.95;;;20.40;72.90;;;;;;5017834;28;20195;-87
2021/09/01 09:40:42;;;;;;;11.02;10.10;;;20.60;71.90;;;;;;4985958;28;20225;-86
2021/09/01 09:43:19;;;;;;;11.50;10.07;;;20.70;71.50;;;;;;4987715;28;20190;-86
2021/09/01 09:45:57;;;;;;;10.05;9.15;;;20.70;70.90;;;;;;4986800;28;20236;-86
2021/09/01 09:48:30;;;;;;;11.23;10.20;;;20.80;71.70;;;;;;4990617;28;20186;-85
2021/09/01 09:50:57;;;;;;;13.52;9.88;;;20.90;70.90;;;;;;4987574;28;20707;-86
2021/09/01 09:53:29;;;;;;;9.80;8.98;;;20.90;70.60;;;;;;4990643;28;20202;-87
2021/09/01 09:56:14;;;;;;;9.48;8.68;;;20.90;70.90;;;;;;4988130;28;20668;-86
2021/09/01 09:58:52;;;;;;;9.63;8.63;;;21.20;69.40;;;;;;4988480;28;20206;-86
2021/09/01 10:01:19;;;;;;;10.13;8.70;;;21.40;68.60;;;;;;4987537;28;20641;-86
2021/09/01 10:03:46;;;;;;;8.63;7.93;;;21.60;68.00;;;;;;4988401;28;20211;-85
2021/09/01 10:06:16;;;;;;;9.20;8.40;;;21.80;67.90;;;;;;4989128;28;20204;-86
2021/09/01 10:08:41;;;;;;;10.60;8.77;;;21.80;66.10;;;;;;4984742;28;20662;-86
2021/09/01 10:11:10;;;;;;;9.32;8.50;;;21.80;66.80;;;;;;4988758;28;20202;-86
2021/09/01 10:13:38;;;;;;;9.35;8.25;;;21.80;66.00;;;;;;4986068;28;20564;-86
2021/09/01 10:16:17;;;;;;;10.88;9.68;;;21.90;66.50;;;;;;4985779;28;20573;-86
2021/09/01 10:18:56;;;;;;;10.93;9.95;;;22.20;65.70;;;;;;4988491;28;20358;-86
2021/09/01 10:21:26;;;;;;;10.25;9.15;;;22.50;65.50;;;;;;4986998;28;20238;-91
2021/09/01 10:23:52;;;;;;;9.60;8.80;;;22.50;66.20;;;;;;5003099;28;20787;-91
2021/09/01 10:26:30;;;;;;;10.25;9.35;;;22.50;63.80;;;;;;4991526;28;20202;-91
2021/09/01 10:29:01;;;;;;;8.02;7.32;;;22.50;64.60;;;;;;4989319;28;20221;-92
2021/09/01 10:31:33;;;;;;;9.57;8.77;;;22.80;62.50;;;;;;4991498;28;20195;-90
2021/09/01 10:34:17;;;;;;;9.65;8.75;;;23.10;62.90;;;;;;5011488;28;20225;-90
2021/09/01 10:36:50;;;;;;;8.55;7.85;;;23.30;62.00;;;;;;5003567;28;20217;-91
2021/09/01 10:39:38;;;;;;;10.68;9.77;;;23.50;60.60;;;;;;4984761;28;20514;-91
2021/09/01 10:42:31;;;;;;;10.95;9.93;;;23.10;60.80;;;;;;4988053;28;20288;-91
2021/09/01 10:44:57;;;;;;;9.68;8.70;;;22.80;63.20;;;;;;5000692;28;20209;-90
2021/09/01 10:47:23;;;;;;;8.88;8.07;;;23.00;62.50;;;;;;4989916;28;20665;-92
2021/09/01 10:49:54;;;;;;;9.63;8.75;;;23.20;59.70;;;;;;5002707;28;20190;-92
2021/09/01 10:52:21;;;;;;;9.63;8.85;;;23.50;59.10;;;;;;4994979;28;20193;-91
2021/09/01 10:54:49;;;;;;;10.15;9.25;;;24.00;58.90;;;;;;4993499;28;20685;-92
2021/09/01 10:57:30;;;;;;;9.52;8.73;;;24.20;59.00;;;;;;4987430;28;20694;-91
2021/09/01 10:59:59;;;;;;;10.32;7.80;;;24.10;58.70;;;;;;4998543;28;20718;-90
2021/09/01 11:02:26;;;;;;;9.55;8.63;;;24.20;58.30;;;;;;4989090;28;20217;-91
2021/09/01 11:04:52;;;;;;;8.77;8.00;;;24.50;58.50;;;;;;4991080;28;20206;-91
2021/09/01 11:07:19;;;;;;;9.20;8.40;;;24.40;58.20;;;;;;4991815;28;20191;-89
2021/09/01 11:09:53;;;;;;;8.63;7.82;;;24.60;56.90;;;;;;4991607;28;20193;-88
2021/09/01 11:12:20;;;;;;;9.52;8.52;;;24.40;56.30;;;;;;4990784;28;20218;-88
2021/09/01 11:14:49;;;;;;;11.82;8.70;;;23.90;58.90;;;;;;4986375;28;20273;-88
2021/09/01 11:17:21;;;;;;;8.85;7.95;;;24.20;57.80;;;;;;4988992;28;20210;-88
2021/09/01 11:19:48;;;;;;;8.57;7.78;;;24.30;56.40;;;;;;4991685;28;20198;-87
2021/09/01 11:22:19;;;;;;;8.43;7.75;;;24.50;56.90;;;;;;4993069;28;20205;-88
2021/09/01 11:24:51;;;;;;;8.40;7.63;;;24.70;55.60;;;;;;4991504;28;20206;-88
2021/09/01 11:27:27;;;;;;;8.93;8.02;;;24.10;56.80;;;;;;4998273;28;20221;-88
2021/09/01 11:30:08;;;;;;;8.80;7.90;;;24.30;57.50;;;;;;5001943;28;20200;-88
2021/09/01 11:32:35;;;;;;;9.38;8.45;;;24.20;56.50;;;;;;5003497;28;20228;-88
2021/09/01 11:35:04;;;;;;;8.82;7.88;;;24.50;55.50;;;;;;4981604;28;20217;-88
2021/09/01 11:37:29;;;;;;;8.45;7.65;;;24.50;54.90;;;;;;4999173;28;20293;-88
2021/09/01 11:39:55;;;;;;;8.15;7.50;;;24.90;54.70;;;;;;4996447;28;20183;-89
2021/09/01 11:42:21;;;;;;;8.40;7.70;;;25.20;53.20;;;;;;5000449;28;20189;-91
2021/09/01 11:44:55;;;;;;;8.45;7.68;;;25.40;52.70;;;;;;4995384;28;20206;-88
2021/09/01 11:47:20;;;;;;;7.90;7.15;;;25.10;53.70;;;;;;5005331;28;20210;-89
2021/09/01 11:49:49;;;;;;;9.57;8.73;;;24.70;54.30;;;;;;4996916;28;20206;-89
2021/09/01 11:52:15;;;;;;;10.23;8.30;;;25.10;53.60;;;;;;4994078;28;20190;-88
2021/09/01 11:54:41;;;;;;;9.18;8.38;;;25.20;52.40;;;;;;4994731;28;20218;-87
2021/09/01 11:57:23;;;;;;;8.95;7.80;;;25.50;51.50;;;;;;4995612;28;20232;-88
2021/09/01 11:59:49;;;;;;;8.50;7.55;;;25.50;51.90;;;;;;4994795;28;20201;-88
2021/09/01 12:02:22;;;;;;;8.63;7.82;;;25.80;50.90;;;;;;4994402;28;20201;-88
2021/09/01 12:04:48;;;;;;;9.07;8.38;;;25.50;50.90;;;;;;4991994;28;20574;-87
2021/09/01 12:07:27;;;;;;;7.22;6.63;;;24.70;53.00;;;;;;4995071;28;20195;-88
2021/09/01 12:09:54;;;;;;;7.25;6.47;;;24.50;55.10;;;;;;4995826;28;20193;-90
2021/09/01 12:12:20;;;;;;;7.65;6.95;;;25.10;50.50;;;;;;4993754;28;20282;-88
2021/09/01 12:14:46;;;;;;;6.55;6.05;;;25.70;49.20;;;;;;4997749;28;20215;-88
2021/09/01 12:17:22;;;;;;;7.35;6.68;;;26.20;46.30;;;;;;4993711;28;20215;-89
2021/09/01 12:20:01;;;;;;;7.65;6.40;;;26.70;46.30;;;;;;4996379;28;20205;-89
2021/09/01 12:22:41;;;;;;;8.85;7.00;;;27.10;45.40;;;;;;4996300;28;20209;-88
2021/09/01 12:25:13;;;;;;;6.40;5.80;;;26.40;46.70;;;;;;5012026;28;20208;-88
2021/09/01 12:28:10;;;;;;;7.18;6.57;;;26.40;44.20;;;;;;4994833;28;20296;-88
2021/09/01 12:30:41;;;;;;;7.05;6.40;;;26.40;44.40;;;;;;4980280;28;20702;-87
2021/09/01 12:33:13;;;;;;;9.57;6.95;;;26.40;46.20;;;;;;4996546;28;20210;-89
2021/09/01 12:35:39;;;;;;;7.97;7.25;;;26.50;45.90;;;;;;4995363;28;20214;-88
2021/09/01 12:38:06;;;;;;;7.22;6.70;;;26.40;47.40;;;;;;4993459;28;20186;-88